<?xml version="1.0" encoding="UTF-8" standalone="no" ?>
<gpx xmlns="http://www.topografix.com/GPX/1/1" xmlns:xsi="http://www.w3.org/2001/XMLSchema-instance" xsi:schemaLocation="http://www.topografix.com/GPX/1/1 http://www.topografix.com/GPX/1/1/gpx.xsd" version="1.1" creator="VisuGPX - https://www.visugpx.com">
  <metadata>
    <name>Randonnée sur le massif adventif autour du Mont-Dore</name>
  </metadata>
  <wpt lat="45.58826" lon="2.80355">
    <ele>1026</ele>
    <name><![CDATA[Prendre la direction du Col de la Croix Morand ]]></name>
  </wpt>
  <wpt lat="45.58781" lon="2.81499">
    <ele>1108</ele>
    <name><![CDATA[Cascade de Queurueilh]]></name>
  </wpt>
  <wpt lat="45.59115" lon="2.81394">
    <ele>1065</ele>
    <name><![CDATA[Cascade de Rossignolet.]]></name>
  </wpt>
  <wpt lat="45.5946" lon="2.82419">
    <ele>1191</ele>
    <name><![CDATA[Le chemin traverse la Rd983]]></name>
  </wpt>
  <wpt lat="45.59948" lon="2.84471">
    <ele>1363</ele>
    <name><![CDATA[La montée se termine le long de la Rd996]]></name>
  </wpt>
  <wpt lat="45.59178" lon="2.84567">
    <ele>1605</ele>
    <name><![CDATA[Puy de la Tache]]></name>
  </wpt>
  <wpt lat="45.58233" lon="2.84458">
    <ele>1650</ele>
    <name><![CDATA[Puys de Monne]]></name>
  </wpt>
  <wpt lat="45.57819" lon="2.83966">
    <ele>1687</ele>
    <name><![CDATA[Puy Barbier]]></name>
  </wpt>
  <wpt lat="45.57293" lon="2.83999">
    <ele>1716</ele>
    <name><![CDATA[Puy de l'Angle]]></name>
  </wpt>
  <wpt lat="45.56381" lon="2.83078">
    <ele>1437</ele>
    <name><![CDATA[Rd36, continuer en face]]></name>
  </wpt>
  <wpt lat="45.56647" lon="2.81962">
    <ele>1297</ele>
    <name><![CDATA[Grande Cascade]]></name>
  </wpt>
  <wpt lat="45.56921" lon="2.8149">
    <ele>1124</ele>
    <name><![CDATA[Rd36, prendre le chemin en face]]></name>
  </wpt>
  <wpt lat="45.58151" lon="2.80769">
    <ele>1074</ele>
    <name><![CDATA[Remonter la route RD996]]></name>
  </wpt>
  <wpt lat="45.58308" lon="2.80634">
    <ele>1088</ele>
    <name><![CDATA[Prendre le chemin à gauche (escalier)]]></name>
  </wpt>
  <wpt lat="45.58338" lon="2.80379">
    <ele>1006</ele>
    <name><![CDATA[On rejoint une route goudronnée]]></name>
  </wpt>
  <wpt lat="45.58826" lon="2.80334">
    <ele>1023</ele>
    <name><![CDATA[Partir du parking du cimetière]]></name>
  </wpt>
  <trk>
    <name><![CDATA[Randonnée sur le massif adventif autour du Mont-Dore]]></name>
    <trkseg>
      <trkpt lat="45.58826" lon="2.80355">
        <ele>1026</ele>
        <time>2021-07-29T16:28:40+02:00</time>
      </trkpt>
      <trkpt lat="45.58816" lon="2.80452">
        <ele>1042</ele>
        <time>2021-07-29T16:28:45+02:00</time>
      </trkpt>
      <trkpt lat="45.58835" lon="2.80598">
        <ele>1054</ele>
        <time>2021-07-29T16:28:50+02:00</time>
      </trkpt>
      <trkpt lat="45.58846" lon="2.80737">
        <ele>1067</ele>
        <time>2021-07-29T16:28:55+02:00</time>
      </trkpt>
      <trkpt lat="45.58856" lon="2.80846">
        <ele>1062</ele>
        <time>2021-07-29T16:29:00+02:00</time>
      </trkpt>
      <trkpt lat="45.58835" lon="2.80922">
        <ele>1060</ele>
        <time>2021-07-29T16:29:05+02:00</time>
      </trkpt>
      <trkpt lat="45.58823" lon="2.81012">
        <ele>1064</ele>
        <time>2021-07-29T16:29:10+02:00</time>
      </trkpt>
      <trkpt lat="45.58811" lon="2.81115">
        <ele>1066</ele>
        <time>2021-07-29T16:29:15+02:00</time>
      </trkpt>
      <trkpt lat="45.58799" lon="2.81203">
        <ele>1072</ele>
        <time>2021-07-29T16:29:20+02:00</time>
      </trkpt>
      <trkpt lat="45.58798" lon="2.81248">
        <ele>1076</ele>
        <time>2021-07-29T16:29:25+02:00</time>
      </trkpt>
      <trkpt lat="45.5879" lon="2.81308">
        <ele>1078</ele>
        <time>2021-07-29T16:29:30+02:00</time>
      </trkpt>
      <trkpt lat="45.58756" lon="2.81346">
        <ele>1082</ele>
        <time>2021-07-29T16:29:35+02:00</time>
      </trkpt>
      <trkpt lat="45.58748" lon="2.81394">
        <ele>1089</ele>
        <time>2021-07-29T16:29:40+02:00</time>
      </trkpt>
      <trkpt lat="45.58754" lon="2.81469">
        <ele>1104</ele>
        <time>2021-07-29T16:29:45+02:00</time>
      </trkpt>
      <trkpt lat="45.58781" lon="2.81499">
        <ele>1108</ele>
        <time>2021-07-29T16:29:50+02:00</time>
      </trkpt>
      <trkpt lat="45.58799" lon="2.81443">
        <ele>1091</ele>
        <time>2021-07-29T16:29:55+02:00</time>
      </trkpt>
      <trkpt lat="45.58823" lon="2.81398">
        <ele>1080</ele>
        <time>2021-07-29T16:30:00+02:00</time>
      </trkpt>
      <trkpt lat="45.58846" lon="2.81402">
        <ele>1078</ele>
        <time>2021-07-29T16:30:05+02:00</time>
      </trkpt>
      <trkpt lat="45.58877" lon="2.81449">
        <ele>1087</ele>
        <time>2021-07-29T16:30:10+02:00</time>
      </trkpt>
      <trkpt lat="45.58941" lon="2.81379">
        <ele>1067</ele>
        <time>2021-07-29T16:30:15+02:00</time>
      </trkpt>
      <trkpt lat="45.59001" lon="2.81323">
        <ele>1059</ele>
        <time>2021-07-29T16:30:20+02:00</time>
      </trkpt>
      <trkpt lat="45.59053" lon="2.81366">
        <ele>1062</ele>
        <time>2021-07-29T16:30:25+02:00</time>
      </trkpt>
      <trkpt lat="45.59115" lon="2.81394">
        <ele>1065</ele>
        <time>2021-07-29T16:30:30+02:00</time>
      </trkpt>
      <trkpt lat="45.59106" lon="2.81447">
        <ele>1070</ele>
        <time>2021-07-29T16:30:35+02:00</time>
      </trkpt>
      <trkpt lat="45.59136" lon="2.81471">
        <ele>1070</ele>
        <time>2021-07-29T16:30:40+02:00</time>
      </trkpt>
      <trkpt lat="45.5916" lon="2.81529">
        <ele>1073</ele>
        <time>2021-07-29T16:30:45+02:00</time>
      </trkpt>
      <trkpt lat="45.59152" lon="2.81591">
        <ele>1081</ele>
        <time>2021-07-29T16:30:50+02:00</time>
      </trkpt>
      <trkpt lat="45.59194" lon="2.81677">
        <ele>1084</ele>
        <time>2021-07-29T16:30:55+02:00</time>
      </trkpt>
      <trkpt lat="45.59211" lon="2.81726">
        <ele>1091</ele>
        <time>2021-07-29T16:31:00+02:00</time>
      </trkpt>
      <trkpt lat="45.59227" lon="2.81855">
        <ele>1105</ele>
        <time>2021-07-29T16:31:05+02:00</time>
      </trkpt>
      <trkpt lat="45.59284" lon="2.8207">
        <ele>1128</ele>
        <time>2021-07-29T16:31:10+02:00</time>
      </trkpt>
      <trkpt lat="45.59289" lon="2.82012">
        <ele>1123</ele>
        <time>2021-07-29T16:31:15+02:00</time>
      </trkpt>
      <trkpt lat="45.59296" lon="2.81945">
        <ele>1118</ele>
        <time>2021-07-29T16:31:20+02:00</time>
      </trkpt>
      <trkpt lat="45.59322" lon="2.81917">
        <ele>1119</ele>
        <time>2021-07-29T16:31:25+02:00</time>
      </trkpt>
      <trkpt lat="45.59329" lon="2.8193">
        <ele>1122</ele>
        <time>2021-07-29T16:31:30+02:00</time>
      </trkpt>
      <trkpt lat="45.59316" lon="2.82018">
        <ele>1131</ele>
        <time>2021-07-29T16:31:35+02:00</time>
      </trkpt>
      <trkpt lat="45.59335" lon="2.82121">
        <ele>1146</ele>
        <time>2021-07-29T16:31:40+02:00</time>
      </trkpt>
      <trkpt lat="45.59367" lon="2.822">
        <ele>1162</ele>
        <time>2021-07-29T16:31:45+02:00</time>
      </trkpt>
      <trkpt lat="45.59394" lon="2.82348">
        <ele>1171</ele>
        <time>2021-07-29T16:31:50+02:00</time>
      </trkpt>
      <trkpt lat="45.5946" lon="2.82419">
        <ele>1191</ele>
        <time>2021-07-29T16:31:55+02:00</time>
      </trkpt>
      <trkpt lat="45.59547" lon="2.82563">
        <ele>1206</ele>
        <time>2021-07-29T16:32:00+02:00</time>
      </trkpt>
      <trkpt lat="45.59613" lon="2.82703">
        <ele>1214</ele>
        <time>2021-07-29T16:32:05+02:00</time>
      </trkpt>
      <trkpt lat="45.59718" lon="2.82885">
        <ele>1230</ele>
        <time>2021-07-29T16:32:10+02:00</time>
      </trkpt>
      <trkpt lat="45.59759" lon="2.82919">
        <ele>1236</ele>
        <time>2021-07-29T16:32:15+02:00</time>
      </trkpt>
      <trkpt lat="45.59778" lon="2.8299">
        <ele>1240</ele>
        <time>2021-07-29T16:32:20+02:00</time>
      </trkpt>
      <trkpt lat="45.59732" lon="2.83099">
        <ele>1245</ele>
        <time>2021-07-29T16:32:25+02:00</time>
      </trkpt>
      <trkpt lat="45.59823" lon="2.83127">
        <ele>1253</ele>
        <time>2021-07-29T16:32:30+02:00</time>
      </trkpt>
      <trkpt lat="45.59942" lon="2.83426">
        <ele>1280</ele>
        <time>2021-07-29T16:32:35+02:00</time>
      </trkpt>
      <trkpt lat="45.6002" lon="2.83664">
        <ele>1295</ele>
        <time>2021-07-29T16:32:40+02:00</time>
      </trkpt>
      <trkpt lat="45.60032" lon="2.83775">
        <ele>1304</ele>
        <time>2021-07-29T16:32:45+02:00</time>
      </trkpt>
      <trkpt lat="45.60068" lon="2.83951">
        <ele>1316</ele>
        <time>2021-07-29T16:32:50+02:00</time>
      </trkpt>
      <trkpt lat="45.60082" lon="2.83996">
        <ele>1318</ele>
        <time>2021-07-29T16:32:55+02:00</time>
      </trkpt>
      <trkpt lat="45.60079" lon="2.84117">
        <ele>1328</ele>
        <time>2021-07-29T16:33:00+02:00</time>
      </trkpt>
      <trkpt lat="45.60076" lon="2.84205">
        <ele>1334</ele>
        <time>2021-07-29T16:33:05+02:00</time>
      </trkpt>
      <trkpt lat="45.60053" lon="2.8426">
        <ele>1342</ele>
        <time>2021-07-29T16:33:10+02:00</time>
      </trkpt>
      <trkpt lat="45.60049" lon="2.84344">
        <ele>1346</ele>
        <time>2021-07-29T16:33:15+02:00</time>
      </trkpt>
      <trkpt lat="45.60035" lon="2.84404">
        <ele>1349</ele>
        <time>2021-07-29T16:33:20+02:00</time>
      </trkpt>
      <trkpt lat="45.60001" lon="2.84486">
        <ele>1355</ele>
        <time>2021-07-29T16:33:25+02:00</time>
      </trkpt>
      <trkpt lat="45.5996" lon="2.8452">
        <ele>1361</ele>
        <time>2021-07-29T16:33:30+02:00</time>
      </trkpt>
      <trkpt lat="45.59948" lon="2.84471">
        <ele>1363</ele>
        <time>2021-07-29T16:33:35+02:00</time>
      </trkpt>
      <trkpt lat="45.59769" lon="2.84893">
        <ele>1389</ele>
        <time>2021-07-29T16:33:40+02:00</time>
      </trkpt>
      <trkpt lat="45.59718" lon="2.85011">
        <ele>1396</ele>
        <time>2021-07-29T16:33:45+02:00</time>
      </trkpt>
      <trkpt lat="45.59673" lon="2.85024">
        <ele>1399</ele>
        <time>2021-07-29T16:33:50+02:00</time>
      </trkpt>
      <trkpt lat="45.59612" lon="2.84949">
        <ele>1404</ele>
        <time>2021-07-29T16:33:55+02:00</time>
      </trkpt>
      <trkpt lat="45.59574" lon="2.84898">
        <ele>1414</ele>
        <time>2021-07-29T16:34:00+02:00</time>
      </trkpt>
      <trkpt lat="45.59571" lon="2.84874">
        <ele>1417</ele>
        <time>2021-07-29T16:34:05+02:00</time>
      </trkpt>
      <trkpt lat="45.59552" lon="2.84848">
        <ele>1425</ele>
        <time>2021-07-29T16:34:10+02:00</time>
      </trkpt>
      <trkpt lat="45.59541" lon="2.84808">
        <ele>1431</ele>
        <time>2021-07-29T16:34:15+02:00</time>
      </trkpt>
      <trkpt lat="45.59523" lon="2.84758">
        <ele>1439</ele>
        <time>2021-07-29T16:34:20+02:00</time>
      </trkpt>
      <trkpt lat="45.5951" lon="2.84694">
        <ele>1450</ele>
        <time>2021-07-29T16:34:25+02:00</time>
      </trkpt>
      <trkpt lat="45.59454" lon="2.84732">
        <ele>1469</ele>
        <time>2021-07-29T16:34:30+02:00</time>
      </trkpt>
      <trkpt lat="45.5945" lon="2.84644">
        <ele>1480</ele>
        <time>2021-07-29T16:34:35+02:00</time>
      </trkpt>
      <trkpt lat="45.59457" lon="2.84569">
        <ele>1484</ele>
        <time>2021-07-29T16:34:40+02:00</time>
      </trkpt>
      <trkpt lat="45.59453" lon="2.84509">
        <ele>1495</ele>
        <time>2021-07-29T16:34:45+02:00</time>
      </trkpt>
      <trkpt lat="45.59454" lon="2.84378">
        <ele>1511</ele>
        <time>2021-07-29T16:34:50+02:00</time>
      </trkpt>
      <trkpt lat="45.59424" lon="2.84428">
        <ele>1520</ele>
        <time>2021-07-29T16:34:55+02:00</time>
      </trkpt>
      <trkpt lat="45.59385" lon="2.84494">
        <ele>1533</ele>
        <time>2021-07-29T16:35:00+02:00</time>
      </trkpt>
      <trkpt lat="45.5939" lon="2.84353">
        <ele>1544</ele>
        <time>2021-07-29T16:35:05+02:00</time>
      </trkpt>
      <trkpt lat="45.59376" lon="2.8429">
        <ele>1550</ele>
        <time>2021-07-29T16:35:10+02:00</time>
      </trkpt>
      <trkpt lat="45.59349" lon="2.8426">
        <ele>1554</ele>
        <time>2021-07-29T16:35:15+02:00</time>
      </trkpt>
      <trkpt lat="45.59332" lon="2.84305">
        <ele>1565</ele>
        <time>2021-07-29T16:35:20+02:00</time>
      </trkpt>
      <trkpt lat="45.59317" lon="2.84318">
        <ele>1569</ele>
        <time>2021-07-29T16:35:25+02:00</time>
      </trkpt>
      <trkpt lat="45.59313" lon="2.84353">
        <ele>1574</ele>
        <time>2021-07-29T16:35:30+02:00</time>
      </trkpt>
      <trkpt lat="45.59287" lon="2.84376">
        <ele>1583</ele>
        <time>2021-07-29T16:35:35+02:00</time>
      </trkpt>
      <trkpt lat="45.5928" lon="2.84406">
        <ele>1591</ele>
        <time>2021-07-29T16:35:40+02:00</time>
      </trkpt>
      <trkpt lat="45.59221" lon="2.84456">
        <ele>1604</ele>
        <time>2021-07-29T16:35:45+02:00</time>
      </trkpt>
      <trkpt lat="45.59208" lon="2.8449">
        <ele>1605</ele>
        <time>2021-07-29T16:35:50+02:00</time>
      </trkpt>
      <trkpt lat="45.59208" lon="2.84509">
        <ele>1605</ele>
        <time>2021-07-29T16:35:55+02:00</time>
      </trkpt>
      <trkpt lat="45.59178" lon="2.84567">
        <ele>1605</ele>
        <time>2021-07-29T16:36:00+02:00</time>
      </trkpt>
      <trkpt lat="45.591" lon="2.84604">
        <ele>1595</ele>
        <time>2021-07-29T16:36:05+02:00</time>
      </trkpt>
      <trkpt lat="45.59047" lon="2.84604">
        <ele>1590</ele>
        <time>2021-07-29T16:36:10+02:00</time>
      </trkpt>
      <trkpt lat="45.58974" lon="2.84518">
        <ele>1583</ele>
        <time>2021-07-29T16:36:15+02:00</time>
      </trkpt>
      <trkpt lat="45.58948" lon="2.84503">
        <ele>1582</ele>
        <time>2021-07-29T16:36:20+02:00</time>
      </trkpt>
      <trkpt lat="45.58902" lon="2.84483">
        <ele>1575</ele>
        <time>2021-07-29T16:36:25+02:00</time>
      </trkpt>
      <trkpt lat="45.5884" lon="2.84486">
        <ele>1563</ele>
        <time>2021-07-29T16:36:30+02:00</time>
      </trkpt>
      <trkpt lat="45.58745" lon="2.84511">
        <ele>1552</ele>
        <time>2021-07-29T16:36:35+02:00</time>
      </trkpt>
      <trkpt lat="45.58691" lon="2.84526">
        <ele>1562</ele>
        <time>2021-07-29T16:36:40+02:00</time>
      </trkpt>
      <trkpt lat="45.58598" lon="2.84494">
        <ele>1583</ele>
        <time>2021-07-29T16:36:45+02:00</time>
      </trkpt>
      <trkpt lat="45.58528" lon="2.84479">
        <ele>1594</ele>
        <time>2021-07-29T16:36:50+02:00</time>
      </trkpt>
      <trkpt lat="45.5855" lon="2.84524">
        <ele>1601</ele>
        <time>2021-07-29T16:36:55+02:00</time>
      </trkpt>
      <trkpt lat="45.58519" lon="2.84518">
        <ele>1609</ele>
        <time>2021-07-29T16:37:00+02:00</time>
      </trkpt>
      <trkpt lat="45.58526" lon="2.84571">
        <ele>1616</ele>
        <time>2021-07-29T16:37:05+02:00</time>
      </trkpt>
      <trkpt lat="45.58433" lon="2.8455">
        <ele>1629</ele>
        <time>2021-07-29T16:37:10+02:00</time>
      </trkpt>
      <trkpt lat="45.58355" lon="2.84567">
        <ele>1644</ele>
        <time>2021-07-29T16:37:15+02:00</time>
      </trkpt>
      <trkpt lat="45.58233" lon="2.84458">
        <ele>1650</ele>
        <time>2021-07-29T16:37:20+02:00</time>
      </trkpt>
      <trkpt lat="45.58148" lon="2.84417">
        <ele>1649</ele>
        <time>2021-07-29T16:37:25+02:00</time>
      </trkpt>
      <trkpt lat="45.58119" lon="2.8437">
        <ele>1637</ele>
        <time>2021-07-29T16:37:30+02:00</time>
      </trkpt>
      <trkpt lat="45.58095" lon="2.84316">
        <ele>1633</ele>
        <time>2021-07-29T16:37:35+02:00</time>
      </trkpt>
      <trkpt lat="45.58068" lon="2.84237">
        <ele>1634</ele>
        <time>2021-07-29T16:37:40+02:00</time>
      </trkpt>
      <trkpt lat="45.58038" lon="2.84155">
        <ele>1643</ele>
        <time>2021-07-29T16:37:45+02:00</time>
      </trkpt>
      <trkpt lat="45.57996" lon="2.84112">
        <ele>1653</ele>
        <time>2021-07-29T16:37:50+02:00</time>
      </trkpt>
      <trkpt lat="45.5796" lon="2.84097">
        <ele>1662</ele>
        <time>2021-07-29T16:37:55+02:00</time>
      </trkpt>
      <trkpt lat="45.57882" lon="2.84037">
        <ele>1677</ele>
        <time>2021-07-29T16:38:00+02:00</time>
      </trkpt>
      <trkpt lat="45.57819" lon="2.83966">
        <ele>1687</ele>
        <time>2021-07-29T16:38:05+02:00</time>
      </trkpt>
      <trkpt lat="45.57781" lon="2.83917">
        <ele>1685</ele>
        <time>2021-07-29T16:38:10+02:00</time>
      </trkpt>
      <trkpt lat="45.57759" lon="2.83902">
        <ele>1684</ele>
        <time>2021-07-29T16:38:15+02:00</time>
      </trkpt>
      <trkpt lat="45.57562" lon="2.8396">
        <ele>1674</ele>
        <time>2021-07-29T16:38:20+02:00</time>
      </trkpt>
      <trkpt lat="45.57355" lon="2.83996">
        <ele>1713</ele>
        <time>2021-07-29T16:38:25+02:00</time>
      </trkpt>
      <trkpt lat="45.57293" lon="2.83999">
        <ele>1716</ele>
        <time>2021-07-29T16:38:30+02:00</time>
      </trkpt>
      <trkpt lat="45.57254" lon="2.83896">
        <ele>1711</ele>
        <time>2021-07-29T16:38:35+02:00</time>
      </trkpt>
      <trkpt lat="45.57239" lon="2.83823">
        <ele>1697</ele>
        <time>2021-07-29T16:38:40+02:00</time>
      </trkpt>
      <trkpt lat="45.57234" lon="2.83778">
        <ele>1686</ele>
        <time>2021-07-29T16:38:45+02:00</time>
      </trkpt>
      <trkpt lat="45.57221" lon="2.83778">
        <ele>1684</ele>
        <time>2021-07-29T16:38:50+02:00</time>
      </trkpt>
      <trkpt lat="45.57201" lon="2.83831">
        <ele>1687</ele>
        <time>2021-07-29T16:38:55+02:00</time>
      </trkpt>
      <trkpt lat="45.57186" lon="2.83889">
        <ele>1684</ele>
        <time>2021-07-29T16:39:00+02:00</time>
      </trkpt>
      <trkpt lat="45.57164" lon="2.8382">
        <ele>1674</ele>
        <time>2021-07-29T16:39:05+02:00</time>
      </trkpt>
      <trkpt lat="45.57144" lon="2.83728">
        <ele>1655</ele>
        <time>2021-07-29T16:39:10+02:00</time>
      </trkpt>
      <trkpt lat="45.5715" lon="2.83647">
        <ele>1637</ele>
        <time>2021-07-29T16:39:15+02:00</time>
      </trkpt>
      <trkpt lat="45.57174" lon="2.83602">
        <ele>1626</ele>
        <time>2021-07-29T16:39:20+02:00</time>
      </trkpt>
      <trkpt lat="45.57222" lon="2.83589">
        <ele>1617</ele>
        <time>2021-07-29T16:39:25+02:00</time>
      </trkpt>
      <trkpt lat="45.57116" lon="2.83511">
        <ele>1591</ele>
        <time>2021-07-29T16:39:30+02:00</time>
      </trkpt>
      <trkpt lat="45.57045" lon="2.83456">
        <ele>1568</ele>
        <time>2021-07-29T16:39:35+02:00</time>
      </trkpt>
      <trkpt lat="45.5697" lon="2.83344">
        <ele>1537</ele>
        <time>2021-07-29T16:39:40+02:00</time>
      </trkpt>
      <trkpt lat="45.56949" lon="2.8326">
        <ele>1526</ele>
        <time>2021-07-29T16:39:45+02:00</time>
      </trkpt>
      <trkpt lat="45.56937" lon="2.83237">
        <ele>1527</ele>
        <time>2021-07-29T16:39:50+02:00</time>
      </trkpt>
      <trkpt lat="45.56897" lon="2.83258">
        <ele>1521</ele>
        <time>2021-07-29T16:39:55+02:00</time>
      </trkpt>
      <trkpt lat="45.56869" lon="2.83278">
        <ele>1514</ele>
        <time>2021-07-29T16:40:00+02:00</time>
      </trkpt>
      <trkpt lat="45.56817" lon="2.83331">
        <ele>1501</ele>
        <time>2021-07-29T16:40:05+02:00</time>
      </trkpt>
      <trkpt lat="45.56767" lon="2.83353">
        <ele>1490</ele>
        <time>2021-07-29T16:40:10+02:00</time>
      </trkpt>
      <trkpt lat="45.56688" lon="2.83265">
        <ele>1469</ele>
        <time>2021-07-29T16:40:15+02:00</time>
      </trkpt>
      <trkpt lat="45.56381" lon="2.83078">
        <ele>1437</ele>
        <time>2021-07-29T16:40:20+02:00</time>
      </trkpt>
      <trkpt lat="45.56345" lon="2.83069">
        <ele>1436</ele>
        <time>2021-07-29T16:40:25+02:00</time>
      </trkpt>
      <trkpt lat="45.5626" lon="2.82999">
        <ele>1439</ele>
        <time>2021-07-29T16:40:30+02:00</time>
      </trkpt>
      <trkpt lat="45.56184" lon="2.82932">
        <ele>1441</ele>
        <time>2021-07-29T16:40:35+02:00</time>
      </trkpt>
      <trkpt lat="45.56127" lon="2.82876">
        <ele>1441</ele>
        <time>2021-07-29T16:40:40+02:00</time>
      </trkpt>
      <trkpt lat="45.56099" lon="2.82833">
        <ele>1442</ele>
        <time>2021-07-29T16:40:45+02:00</time>
      </trkpt>
      <trkpt lat="45.56135" lon="2.82754">
        <ele>1434</ele>
        <time>2021-07-29T16:40:50+02:00</time>
      </trkpt>
      <trkpt lat="45.56202" lon="2.82634">
        <ele>1427</ele>
        <time>2021-07-29T16:40:55+02:00</time>
      </trkpt>
      <trkpt lat="45.56248" lon="2.8258">
        <ele>1422</ele>
        <time>2021-07-29T16:41:00+02:00</time>
      </trkpt>
      <trkpt lat="45.56278" lon="2.82516">
        <ele>1419</ele>
        <time>2021-07-29T16:41:05+02:00</time>
      </trkpt>
      <trkpt lat="45.56327" lon="2.8234">
        <ele>1403</ele>
        <time>2021-07-29T16:41:10+02:00</time>
      </trkpt>
      <trkpt lat="45.56357" lon="2.82258">
        <ele>1388</ele>
        <time>2021-07-29T16:41:15+02:00</time>
      </trkpt>
      <trkpt lat="45.56465" lon="2.82138">
        <ele>1354</ele>
        <time>2021-07-29T16:41:20+02:00</time>
      </trkpt>
      <trkpt lat="45.56503" lon="2.8213">
        <ele>1345</ele>
        <time>2021-07-29T16:41:25+02:00</time>
      </trkpt>
      <trkpt lat="45.56533" lon="2.82125">
        <ele>1341</ele>
        <time>2021-07-29T16:41:30+02:00</time>
      </trkpt>
      <trkpt lat="45.5655" lon="2.81915">
        <ele>1322</ele>
        <time>2021-07-29T16:41:35+02:00</time>
      </trkpt>
      <trkpt lat="45.56562" lon="2.81951">
        <ele>1324</ele>
        <time>2021-07-29T16:41:40+02:00</time>
      </trkpt>
      <trkpt lat="45.56577" lon="2.81954">
        <ele>1320</ele>
        <time>2021-07-29T16:41:45+02:00</time>
      </trkpt>
      <trkpt lat="45.56574" lon="2.81913">
        <ele>1313</ele>
        <time>2021-07-29T16:41:50+02:00</time>
      </trkpt>
      <trkpt lat="45.5659" lon="2.81951">
        <ele>1314</ele>
        <time>2021-07-29T16:41:55+02:00</time>
      </trkpt>
      <trkpt lat="45.56647" lon="2.81962">
        <ele>1297</ele>
        <time>2021-07-29T16:42:00+02:00</time>
      </trkpt>
      <trkpt lat="45.56683" lon="2.81988">
        <ele>1308</ele>
        <time>2021-07-29T16:42:05+02:00</time>
      </trkpt>
      <trkpt lat="45.56745" lon="2.81919">
        <ele>1282</ele>
        <time>2021-07-29T16:42:10+02:00</time>
      </trkpt>
      <trkpt lat="45.56757" lon="2.81874">
        <ele>1262</ele>
        <time>2021-07-29T16:42:15+02:00</time>
      </trkpt>
      <trkpt lat="45.56778" lon="2.81846">
        <ele>1255</ele>
        <time>2021-07-29T16:42:20+02:00</time>
      </trkpt>
      <trkpt lat="45.56776" lon="2.81825">
        <ele>1244</ele>
        <time>2021-07-29T16:42:25+02:00</time>
      </trkpt>
      <trkpt lat="45.56749" lon="2.81831">
        <ele>1238</ele>
        <time>2021-07-29T16:42:30+02:00</time>
      </trkpt>
      <trkpt lat="45.56718" lon="2.81859">
        <ele>1253</ele>
        <time>2021-07-29T16:42:35+02:00</time>
      </trkpt>
      <trkpt lat="45.56728" lon="2.81808">
        <ele>1231</ele>
        <time>2021-07-29T16:42:40+02:00</time>
      </trkpt>
      <trkpt lat="45.5671" lon="2.81799">
        <ele>1232</ele>
        <time>2021-07-29T16:42:45+02:00</time>
      </trkpt>
      <trkpt lat="45.56772" lon="2.81735">
        <ele>1202</ele>
        <time>2021-07-29T16:42:50+02:00</time>
      </trkpt>
      <trkpt lat="45.56823" lon="2.81619">
        <ele>1165</ele>
        <time>2021-07-29T16:42:55+02:00</time>
      </trkpt>
      <trkpt lat="45.56871" lon="2.81589">
        <ele>1156</ele>
        <time>2021-07-29T16:43:00+02:00</time>
      </trkpt>
      <trkpt lat="45.56967" lon="2.81597">
        <ele>1181</ele>
        <time>2021-07-29T16:43:05+02:00</time>
      </trkpt>
      <trkpt lat="45.57027" lon="2.81555">
        <ele>1170</ele>
        <time>2021-07-29T16:43:10+02:00</time>
      </trkpt>
      <trkpt lat="45.56955" lon="2.81535">
        <ele>1148</ele>
        <time>2021-07-29T16:43:15+02:00</time>
      </trkpt>
      <trkpt lat="45.56921" lon="2.8149">
        <ele>1124</ele>
        <time>2021-07-29T16:43:20+02:00</time>
      </trkpt>
      <trkpt lat="45.56984" lon="2.81471">
        <ele>1122</ele>
        <time>2021-07-29T16:43:25+02:00</time>
      </trkpt>
      <trkpt lat="45.5724" lon="2.81351">
        <ele>1111</ele>
        <time>2021-07-29T16:43:30+02:00</time>
      </trkpt>
      <trkpt lat="45.57268" lon="2.81314">
        <ele>1103</ele>
        <time>2021-07-29T16:43:35+02:00</time>
      </trkpt>
      <trkpt lat="45.57389" lon="2.81252">
        <ele>1101</ele>
        <time>2021-07-29T16:43:40+02:00</time>
      </trkpt>
      <trkpt lat="45.57467" lon="2.81237">
        <ele>1103</ele>
        <time>2021-07-29T16:43:45+02:00</time>
      </trkpt>
      <trkpt lat="45.57524" lon="2.81246">
        <ele>1113</ele>
        <time>2021-07-29T16:43:50+02:00</time>
      </trkpt>
      <trkpt lat="45.57559" lon="2.81215">
        <ele>1111</ele>
        <time>2021-07-29T16:43:55+02:00</time>
      </trkpt>
      <trkpt lat="45.57605" lon="2.81125">
        <ele>1094</ele>
        <time>2021-07-29T16:44:00+02:00</time>
      </trkpt>
      <trkpt lat="45.57744" lon="2.81031">
        <ele>1093</ele>
        <time>2021-07-29T16:44:05+02:00</time>
      </trkpt>
      <trkpt lat="45.57771" lon="2.81048">
        <ele>1106</ele>
        <time>2021-07-29T16:44:10+02:00</time>
      </trkpt>
      <trkpt lat="45.57936" lon="2.80962">
        <ele>1098</ele>
        <time>2021-07-29T16:44:15+02:00</time>
      </trkpt>
      <trkpt lat="45.58062" lon="2.80879">
        <ele>1092</ele>
        <time>2021-07-29T16:44:20+02:00</time>
      </trkpt>
      <trkpt lat="45.58106" lon="2.80838">
        <ele>1088</ele>
        <time>2021-07-29T16:44:25+02:00</time>
      </trkpt>
      <trkpt lat="45.58151" lon="2.80769">
        <ele>1074</ele>
        <time>2021-07-29T16:44:30+02:00</time>
      </trkpt>
      <trkpt lat="45.58308" lon="2.80634">
        <ele>1088</ele>
        <time>2021-07-29T16:44:35+02:00</time>
      </trkpt>
      <trkpt lat="45.5838" lon="2.8051">
        <ele>1064</ele>
        <time>2021-07-29T16:44:40+02:00</time>
      </trkpt>
      <trkpt lat="45.58356" lon="2.80492">
        <ele>1047</ele>
        <time>2021-07-29T16:44:45+02:00</time>
      </trkpt>
      <trkpt lat="45.58377" lon="2.80462">
        <ele>1044</ele>
        <time>2021-07-29T16:44:50+02:00</time>
      </trkpt>
      <trkpt lat="45.58344" lon="2.80456">
        <ele>1030</ele>
        <time>2021-07-29T16:44:55+02:00</time>
      </trkpt>
      <trkpt lat="45.58343" lon="2.80411">
        <ele>1014</ele>
        <time>2021-07-29T16:45:00+02:00</time>
      </trkpt>
      <trkpt lat="45.58338" lon="2.80379">
        <ele>1006</ele>
        <time>2021-07-29T16:45:05+02:00</time>
      </trkpt>
      <trkpt lat="45.58616" lon="2.80194">
        <ele>1014</ele>
        <time>2021-07-29T16:45:10+02:00</time>
      </trkpt>
      <trkpt lat="45.58712" lon="2.80164">
        <ele>1014</ele>
        <time>2021-07-29T16:45:15+02:00</time>
      </trkpt>
      <trkpt lat="45.5876" lon="2.80181">
        <ele>1017</ele>
        <time>2021-07-29T16:45:20+02:00</time>
      </trkpt>
      <trkpt lat="45.58805" lon="2.80258">
        <ele>1023</ele>
        <time>2021-07-29T16:45:25+02:00</time>
      </trkpt>
      <trkpt lat="45.58822" lon="2.80295">
        <ele>1023</ele>
        <time>2021-07-29T16:45:30+02:00</time>
      </trkpt>
      <trkpt lat="45.58826" lon="2.80334">
        <ele>1023</ele>
        <time>2021-07-29T16:45:35+02:00</time>
      </trkpt>
      <trkpt lat="45.58826" lon="2.80334">
        <ele>1023</ele>
        <time>2021-07-29T16:45:40+02:00</time>
      </trkpt>
    </trkseg>
  </trk>
</gpx>